sensor_id;sensor_type;location;lat;lon;timestamp;pressure;altitude;pressure_sealevel;temperature;humidity
11172;BME280;5642;50.830;12.082;2022-09-16T00:00:48;98609.88;;;18.23;44.91
11172;BME280;5642;50.830;12.082;2022-09-16T00:03:16;98605.16;;;18.16;44.90
11172;BME280;5642;50.830;12.082;2022-09-16T00:05:43;98609.97;;;18.11;44.87
11172;BME280;5642;50.830;12.082;2022-09-16T00:08:10;98616.78;;;18.02;44.89
11172;BME280;5642;50.830;12.082;2022-09-16T00:10:36;98613.22;;;17.90;44.93
11172;BME280;5642;50.830;12.082;2022-09-16T00:13:14;98583.59;;;17.62;45.05
11172;BME280;5642;50.830;12.082;2022-09-16T00:15:45;98573.66;;;17.52;45.01
11172;BME280;5642;50.830;12.082;2022-09-16T00:18:12;98621.94;;;17.69;45.07
11172;BME280;5642;50.830;12.082;2022-09-16T00:20:45;98628.50;;;17.63;45.10
11172;BME280;5642;50.830;12.082;2022-09-16T00:23:12;98619.16;;;17.57;45.25
11172;BME280;5642;50.830;12.082;2022-09-16T00:25:38;98570.22;;;17.27;45.16
11172;BME280;5642;50.830;12.082;2022-09-16T00:28:23;98609.13;;;17.50;45.34
11172;BME280;5642;50.830;12.082;2022-09-16T00:30:50;98618.56;;;17.54;45.39
11172;BME280;5642;50.830;12.082;2022-09-16T00:33:16;98603.09;;;17.48;45.41
11172;BME280;5642;50.830;12.082;2022-09-16T00:35:43;98609.13;;;17.50;45.42
11172;BME280;5642;50.830;12.082;2022-09-16T00:38:09;98610.38;;;17.57;45.51
11172;BME280;5642;50.830;12.082;2022-09-16T00:40:43;98609.84;;;17.65;45.36
11172;BME280;5642;50.830;12.082;2022-09-16T00:43:16;98617.34;;;17.71;45.49
11172;BME280;5642;50.830;12.082;2022-09-16T00:46:06;98615.31;;;17.74;45.53
11172;BME280;5642;50.830;12.082;2022-09-16T00:48:41;98619.31;;;17.80;45.50
11172;BME280;5642;50.830;12.082;2022-09-16T00:51:10;98567.16;;;17.56;45.47
11172;BME280;5642;50.830;12.082;2022-09-16T00:53:47;98620.00;;;17.94;45.46
11172;BME280;5642;50.830;12.082;2022-09-16T00:56:19;98621.59;;;17.97;45.55
11172;BME280;5642;50.830;12.082;2022-09-16T00:59:14;98615.81;;;18.03;45.40
11172;BME280;5642;50.830;12.082;2022-09-16T01:01:42;98609.06;;;17.99;45.54
11172;BME280;5642;50.830;12.082;2022-09-16T01:04:26;98621.53;;;18.10;45.39
11172;BME280;5642;50.830;12.082;2022-09-16T01:06:55;98617.78;;;18.12;45.48
11172;BME280;5642;50.830;12.082;2022-09-16T01:09:23;98618.41;;;18.16;45.52
11172;BME280;5642;50.830;12.082;2022-09-16T01:11:53;98598.63;;;18.09;45.44
11172;BME280;5642;50.830;12.082;2022-09-16T01:14:22;98594.75;;;18.13;45.49
11172;BME280;5642;50.830;12.082;2022-09-16T01:17:34;98607.34;;;18.22;45.59
11172;BME280;5642;50.830;12.082;2022-09-16T01:29:27;98603.09;;;18.19;45.63
11172;BME280;5642;50.830;12.082;2022-09-16T01:37:52;98615.00;;;18.14;45.65
11172;BME280;5642;50.830;12.082;2022-09-16T01:40:47;98618.03;;;18.09;45.62
11172;BME280;5642;50.830;12.082;2022-09-16T01:46:22;98617.94;;;17.98;45.67
11172;BME280;5642;50.830;12.082;2022-09-16T01:52:09;98609.50;;;17.93;45.74
11172;BME280;5642;50.830;12.082;2022-09-16T01:55:05;98586.09;;;17.76;45.67
11172;BME280;5642;50.830;12.082;2022-09-16T01:57:55;98604.16;;;17.82;45.82
11172;BME280;5642;50.830;12.082;2022-09-16T02:00:24;98594.13;;;17.74;45.66
11172;BME280;5642;50.830;12.082;2022-09-16T02:03:09;98610.75;;;17.76;45.65
11172;BME280;5642;50.830;12.082;2022-09-16T02:06:00;98614.59;;;17.72;45.87
11172;BME280;5642;50.830;12.082;2022-09-16T02:08:44;98602.16;;;17.62;45.77
11172;BME280;5642;50.830;12.082;2022-09-16T02:11:15;98614.28;;;17.64;45.73
11172;BME280;5642;50.830;12.082;2022-09-16T02:16:25;98622.66;;;17.58;45.63
11172;BME280;5642;50.830;12.082;2022-09-16T02:18:58;98612.50;;;17.52;45.80
11172;BME280;5642;50.830;12.082;2022-09-16T02:21:31;98609.47;;;17.45;45.83
11172;BME280;5642;50.830;12.082;2022-09-16T02:24:02;98579.16;;;17.26;45.62
11172;BME280;5642;50.830;12.082;2022-09-16T02:26:35;98588.69;;;17.15;45.70
11172;BME280;5642;50.830;12.082;2022-09-16T02:29:09;98575.16;;;17.07;45.85
11172;BME280;5642;50.830;12.082;2022-09-16T02:31:42;98616.81;;;17.29;45.81
11172;BME280;5642;50.830;12.082;2022-09-16T02:34:15;98619.56;;;17.28;45.84
11172;BME280;5642;50.830;12.082;2022-09-16T02:36:44;98622.44;;;17.25;45.86
11172;BME280;5642;50.830;12.082;2022-09-16T02:39:16;98618.94;;;17.24;45.80
11172;BME280;5642;50.830;12.082;2022-09-16T02:41:46;98610.91;;;17.13;46.08
11172;BME280;5642;50.830;12.082;2022-09-16T02:44:13;98610.59;;;17.17;46.08
11172;BME280;5642;50.830;12.082;2022-09-16T02:46:54;98573.03;;;17.00;45.98
11172;BME280;5642;50.830;12.082;2022-09-16T02:54:39;98617.44;;;17.33;45.92
11172;BME280;5642;50.830;12.082;2022-09-16T02:57:09;98625.38;;;17.33;45.85
11172;BME280;5642;50.830;12.082;2022-09-16T02:59:36;98592.50;;;17.11;46.03
11172;BME280;5642;50.830;12.082;2022-09-16T03:02:03;98625.25;;;17.34;45.96
11172;BME280;5642;50.830;12.082;2022-09-16T03:04:29;98604.75;;;17.25;46.09
11172;BME280;5642;50.830;12.082;2022-09-16T03:06:56;98612.56;;;17.27;46.14
11172;BME280;5642;50.830;12.082;2022-09-16T03:09:25;98614.66;;;17.34;45.96
11172;BME280;5642;50.830;12.082;2022-09-16T03:23:31;98614.16;;;17.29;46.06
11172;BME280;5642;50.830;12.082;2022-09-16T03:36:36;98620.34;;;17.17;46.08
11172;BME280;5642;50.830;12.082;2022-09-16T03:39:06;98577.31;;;16.90;46.19
11172;BME280;5642;50.830;12.082;2022-09-16T03:41:34;98615.66;;;17.20;46.12
11172;BME280;5642;50.830;12.082;2022-09-16T03:44:01;98605.50;;;17.14;46.09
11172;BME280;5642;50.830;12.082;2022-09-16T03:46:28;98562.38;;;16.89;46.10
11172;BME280;5642;50.830;12.082;2022-09-16T03:48:58;98612.69;;;17.25;46.33
11172;BME280;5642;50.830;12.082;2022-09-16T03:51:25;98536.25;;;16.84;46.35
11172;BME280;5642;50.830;12.082;2022-09-16T03:53:53;98590.47;;;17.15;46.26
11172;BME280;5642;50.830;12.082;2022-09-16T03:56:22;98588.69;;;17.15;46.01
11172;BME280;5642;50.830;12.082;2022-09-16T03:58:51;98598.63;;;17.25;46.13
11172;BME280;5642;50.830;12.082;2022-09-16T04:01:17;98610.06;;;17.25;46.15
11172;BME280;5642;50.830;12.082;2022-09-16T04:03:44;98582.22;;;17.07;46.08
11172;BME280;5642;50.830;12.082;2022-09-16T04:06:11;98616.00;;;17.16;46.10
11172;BME280;5642;50.830;12.082;2022-09-16T04:08:37;98601.50;;;17.09;45.95
11172;BME280;5642;50.830;12.082;2022-09-16T04:11:04;98611.16;;;16.97;46.21
11172;BME280;5642;50.830;12.082;2022-09-16T04:13:32;98583.22;;;16.80;46.30
11172;BME280;5642;50.830;12.082;2022-09-16T04:16:01;98616.56;;;16.96;46.27
11172;BME280;5642;50.830;12.082;2022-09-16T04:18:30;98615.28;;;16.89;46.27
11172;BME280;5642;50.830;12.082;2022-09-16T04:20:57;98621.44;;;16.89;46.34
11172;BME280;5642;50.830;12.082;2022-09-16T04:23:25;98560.16;;;16.44;46.29
11172;BME280;5642;50.830;12.082;2022-09-16T04:25:56;98623.75;;;16.81;46.27
11172;BME280;5642;50.830;12.082;2022-09-16T04:28:22;98621.44;;;16.76;46.35
11172;BME280;5642;50.830;12.082;2022-09-16T04:30:49;98618.16;;;16.73;46.31
11172;BME280;5642;50.830;12.082;2022-09-16T04:33:17;98571.25;;;16.37;46.23
11172;BME280;5642;50.830;12.082;2022-09-16T04:35:44;98616.03;;;16.65;46.33
11172;BME280;5642;50.830;12.082;2022-09-16T04:38:12;98617.59;;;16.55;46.24
11172;BME280;5642;50.830;12.082;2022-09-16T04:40:39;98567.31;;;16.17;46.02
11172;BME280;5642;50.830;12.082;2022-09-16T04:43:07;98620.53;;;16.51;46.21
11172;BME280;5642;50.830;12.082;2022-09-16T04:45:35;98615.03;;;16.41;46.34
11172;BME280;5642;50.830;12.082;2022-09-16T04:48:02;98607.28;;;16.25;46.50
11172;BME280;5642;50.830;12.082;2022-09-16T04:50:29;98557.44;;;15.94;46.44
11172;BME280;5642;50.830;12.082;2022-09-16T04:52:57;98623.25;;;16.24;46.36
11172;BME280;5642;50.830;12.082;2022-09-16T04:55:27;98623.44;;;16.21;46.50
11172;BME280;5642;50.830;12.082;2022-09-16T04:57:54;98626.72;;;16.24;46.67
11172;BME280;5642;50.830;12.082;2022-09-16T05:00:21;98596.25;;;16.06;46.77
11172;BME280;5642;50.830;12.082;2022-09-16T05:02:49;98605.66;;;16.10;46.71
11172;BME280;5642;50.830;12.082;2022-09-16T05:05:16;98632.66;;;16.28;46.61
11172;BME280;5642;50.830;12.082;2022-09-16T05:07:43;98612.78;;;16.22;46.80
11172;BME280;5642;50.830;12.082;2022-09-16T05:10:10;98623.47;;;16.33;46.85
11172;BME280;5642;50.830;12.082;2022-09-16T05:12:38;98623.34;;;16.35;46.90
11172;BME280;5642;50.830;12.082;2022-09-16T05:15:05;98621.78;;;16.45;46.92
11172;BME280;5642;50.830;12.082;2022-09-16T05:17:32;98600.13;;;16.40;46.85
11172;BME280;5642;50.830;12.082;2022-09-16T05:20:01;98582.66;;;16.37;47.03
11172;BME280;5642;50.830;12.082;2022-09-16T05:22:28;98625.31;;;16.71;47.03
11172;BME280;5642;50.830;12.082;2022-09-16T05:24:57;98623.94;;;16.78;47.02
11172;BME280;5642;50.830;12.082;2022-09-16T05:27:29;98617.19;;;16.87;46.89
11172;BME280;5642;50.830;12.082;2022-09-16T05:29:57;98626.63;;;16.91;46.93
11172;BME280;5642;50.830;12.082;2022-09-16T05:32:26;98611.47;;;16.93;47.13
11172;BME280;5642;50.830;12.082;2022-09-16T05:34:54;98592.75;;;16.83;47.14
11172;BME280;5642;50.830;12.082;2022-09-16T05:37:22;98599.72;;;16.97;47.24
11172;BME280;5642;50.830;12.082;2022-09-16T05:39:49;98582.81;;;16.87;47.14
11172;BME280;5642;50.830;12.082;2022-09-16T05:42:15;98613.34;;;17.16;47.28
11172;BME280;5642;50.830;12.082;2022-09-16T05:44:42;98595.78;;;17.15;47.28
11172;BME280;5642;50.830;12.082;2022-09-16T05:47:08;98615.22;;;17.39;47.38
11172;BME280;5642;50.830;12.082;2022-09-16T05:49:35;98606.72;;;17.47;47.22
11172;BME280;5642;50.830;12.082;2022-09-16T05:52:02;98621.50;;;17.62;47.16
11172;BME280;5642;50.830;12.082;2022-09-16T05:54:30;98627.09;;;17.70;47.17
11172;BME280;5642;50.830;12.082;2022-09-16T05:56:57;98617.22;;;17.72;47.15
11172;BME280;5642;50.830;12.082;2022-09-16T05:59:25;98618.97;;;17.84;47.09
11172;BME280;5642;50.830;12.082;2022-09-16T06:01:53;98579.56;;;17.69;47.03
11172;BME280;5642;50.830;12.082;2022-09-16T06:04:21;98620.00;;;17.94;47.09
11172;BME280;5642;50.830;12.082;2022-09-16T06:06:48;98553.28;;;17.66;46.91
11172;BME280;5642;50.830;12.082;2022-09-16T06:09:21;98600.25;;;17.98;47.02
11172;BME280;5642;50.830;12.082;2022-09-16T06:11:52;98625.16;;;18.20;47.13
11172;BME280;5642;50.830;12.082;2022-09-16T06:14:20;98555.19;;;17.87;46.92
11172;BME280;5642;50.830;12.082;2022-09-16T06:16:51;98624.63;;;18.38;47.01
11172;BME280;5642;50.830;12.082;2022-09-16T06:19:46;98629.22;;;18.48;46.95
11172;BME280;5642;50.830;12.082;2022-09-16T06:26:35;98573.78;;;18.45;47.25
11172;BME280;5642;50.830;12.082;2022-09-16T06:29:06;98627.53;;;18.93;47.45
11172;BME280;5642;50.830;12.082;2022-09-16T06:31:45;98608.34;;;19.11;47.47
11172;BME280;5642;50.830;12.082;2022-09-16T06:34:16;98546.09;;;18.93;47.26
11172;BME280;5642;50.830;12.082;2022-09-16T06:36:43;98542.69;;;19.36;47.32
11172;BME280;5642;50.830;12.082;2022-09-16T06:39:15;98559.41;;;19.90;47.57
11172;BME280;5642;50.830;12.082;2022-09-16T06:41:50;98543.72;;;20.40;47.66
11172;BME280;5642;50.830;12.082;2022-09-16T06:44:17;98536.31;;;21.04;48.09
11172;BME280;5642;50.830;12.082;2022-09-16T06:46:43;98528.63;;;21.70;48.14
11172;BME280;5642;50.830;12.082;2022-09-16T06:49:13;98610.44;;;22.85;48.04
11172;BME280;5642;50.830;12.082;2022-09-16T06:51:39;98601.25;;;23.34;48.02
11172;BME280;5642;50.830;12.082;2022-09-16T06:54:07;98577.94;;;23.54;47.47
11172;BME280;5642;50.830;12.082;2022-09-16T06:56:35;98591.97;;;23.66;47.02
11172;BME280;5642;50.830;12.082;2022-09-16T06:59:04;98568.09;;;23.55;46.71
11172;BME280;5642;50.830;12.082;2022-09-16T07:01:30;98560.69;;;23.49;46.74
11172;BME280;5642;50.830;12.082;2022-09-16T07:04:00;98582.50;;;23.71;46.70
11172;BME280;5642;50.830;12.082;2022-09-16T07:06:28;98590.13;;;23.84;46.55
11172;BME280;5642;50.830;12.082;2022-09-16T07:08:55;98540.09;;;23.76;46.77
11172;BME280;5642;50.830;12.082;2022-09-16T07:11:22;98520.00;;;24.08;47.39
11172;BME280;5642;50.830;12.082;2022-09-16T07:13:49;98537.00;;;24.68;47.11
11172;BME280;5642;50.830;12.082;2022-09-16T07:16:22;98555.78;;;25.02;46.79
11172;BME280;5642;50.830;12.082;2022-09-16T07:18:56;98602.16;;;25.36;46.46
11172;BME280;5642;50.830;12.082;2022-09-16T07:21:25;98596.69;;;25.46;46.39
11172;BME280;5642;50.830;12.082;2022-09-16T07:23:54;98592.16;;;25.47;45.95
11172;BME280;5642;50.830;12.082;2022-09-16T07:26:25;98540.53;;;25.03;46.04
11172;BME280;5642;50.830;12.082;2022-09-16T07:28:52;98563.56;;;25.13;45.55
11172;BME280;5642;50.830;12.082;2022-09-16T07:31:22;98605.44;;;25.22;45.47
11172;BME280;5642;50.830;12.082;2022-09-16T07:33:57;98550.72;;;24.73;45.06
11172;BME280;5642;50.830;12.082;2022-09-16T07:36:26;98552.16;;;24.59;44.78
11172;BME280;5642;50.830;12.082;2022-09-16T07:38:54;98550.22;;;24.44;44.58
11172;BME280;5642;50.830;12.082;2022-09-16T07:41:25;98607.72;;;24.57;44.43
11172;BME280;5642;50.830;12.082;2022-09-16T07:43:57;98607.44;;;24.25;44.70
11172;BME280;5642;50.830;12.082;2022-09-16T07:46:26;98558.56;;;23.70;44.84
11172;BME280;5642;50.830;12.082;2022-09-16T07:48:54;98556.56;;;23.54;44.81
11172;BME280;5642;50.830;12.082;2022-09-16T07:51:22;98586.22;;;23.61;44.38
11172;BME280;5642;50.830;12.082;2022-09-16T07:54:00;98584.97;;;23.55;44.40
11172;BME280;5642;50.830;12.082;2022-09-16T07:56:31;98613.63;;;23.63;44.36
11172;BME280;5642;50.830;12.082;2022-09-16T07:59:00;98591.63;;;23.51;44.32
11172;BME280;5642;50.830;12.082;2022-09-16T08:01:30;98556.34;;;23.38;44.31
11172;BME280;5642;50.830;12.082;2022-09-16T08:03:56;98557.13;;;23.58;44.52
11172;BME280;5642;50.830;12.082;2022-09-16T08:06:29;98595.88;;;23.89;44.40
11172;BME280;5642;50.830;12.082;2022-09-16T08:08:58;98600.25;;;24.26;44.79
11172;BME280;5642;50.830;12.082;2022-09-16T08:11:25;98536.00;;;24.69;45.12
11172;BME280;5642;50.830;12.082;2022-09-16T08:13:57;98559.81;;;26.06;45.83
11172;BME280;5642;50.830;12.082;2022-09-16T08:16:25;98572.00;;;27.06;45.39
11172;BME280;5642;50.830;12.082;2022-09-16T08:18:54;98586.88;;;27.95;45.13
11172;BME280;5642;50.830;12.082;2022-09-16T08:21:23;98556.16;;;28.12;44.20
11172;BME280;5642;50.830;12.082;2022-09-16T08:23:51;98564.19;;;28.20;43.64
11172;BME280;5642;50.830;12.082;2022-09-16T08:26:21;98589.91;;;28.23;43.24
11172;BME280;5642;50.830;12.082;2022-09-16T08:28:48;98597.25;;;28.29;42.90
11172;BME280;5642;50.830;12.082;2022-09-16T08:31:16;98583.94;;;28.50;42.96
11172;BME280;5642;50.830;12.082;2022-09-16T08:33:42;98551.47;;;28.66;43.18
11172;BME280;5642;50.830;12.082;2022-09-16T08:36:14;98585.94;;;29.88;43.27
11172;BME280;5642;50.830;12.082;2022-09-16T08:38:42;98575.19;;;31.08;43.07
11172;BME280;5642;50.830;12.082;2022-09-16T08:46:50;98580.16;;;34.58;41.65
11172;BME280;5642;50.830;12.082;2022-09-16T08:51:48;98562.78;;;35.27;40.31
11172;BME280;5642;50.830;12.082;2022-09-16T08:54:27;98580.63;;;35.42;39.52
11172;BME280;5642;50.830;12.082;2022-09-16T08:56:59;98541.53;;;34.75;39.14
11172;BME280;5642;50.830;12.082;2022-09-16T08:59:31;98562.94;;;34.08;39.02
11172;BME280;5642;50.830;12.082;2022-09-16T09:04:31;98587.16;;;32.48;39.07
11172;BME280;5642;50.830;12.082;2022-09-16T09:09:54;98596.53;;;30.68;39.44
11172;BME280;5642;50.830;12.082;2022-09-16T09:12:31;98558.91;;;29.67;39.37
11172;BME280;5642;50.830;12.082;2022-09-16T09:18:12;98589.19;;;30.41;39.71
11172;BME280;5642;50.830;12.082;2022-09-16T09:23:46;98581.16;;;31.31;39.59
11172;BME280;5642;50.830;12.082;2022-09-16T09:29:02;98588.22;;;30.49;39.09
11172;BME280;5642;50.830;12.082;2022-09-16T09:37:13;98587.81;;;28.33;38.82
11172;BME280;5642;50.830;12.082;2022-09-16T09:42:29;98519.38;;;27.43;39.32
11172;BME280;5642;50.830;12.082;2022-09-16T09:48:08;98568.50;;;26.98;39.42
11172;BME280;5642;50.830;12.082;2022-09-16T09:50:44;98557.13;;;26.47;39.48
11172;BME280;5642;50.830;12.082;2022-09-16T09:53:24;98545.03;;;26.19;39.58
11172;BME280;5642;50.830;12.082;2022-09-16T09:56:20;98557.66;;;26.42;39.66
11172;BME280;5642;50.830;12.082;2022-09-16T10:01:39;98566.19;;;26.46;39.70
11172;BME280;5642;50.830;12.082;2022-09-16T10:04:20;98570.91;;;26.36;39.44
11172;BME280;5642;50.830;12.082;2022-09-16T10:06:48;98519.22;;;25.85;39.38
11172;BME280;5642;50.830;12.082;2022-09-16T10:09:16;98527.88;;;25.63;39.29
11172;BME280;5642;50.830;12.082;2022-09-16T10:11:52;98543.25;;;25.53;39.23
11172;BME280;5642;50.830;12.082;2022-09-16T10:14:33;98550.19;;;25.29;38.94
11172;BME280;5642;50.830;12.082;2022-09-16T10:17:13;98570.09;;;25.19;39.25
11172;BME280;5642;50.830;12.082;2022-09-16T10:19:55;98562.81;;;25.03;38.82
11172;BME280;5642;50.830;12.082;2022-09-16T10:22:28;98556.34;;;24.88;38.94
11172;BME280;5642;50.830;12.082;2022-09-16T10:25:02;98570.81;;;24.95;39.37
11172;BME280;5642;50.830;12.082;2022-09-16T10:27:33;98561.97;;;25.03;38.96
11172;BME280;5642;50.830;12.082;2022-09-16T10:30:18;98494.00;;;24.70;39.17
11172;BME280;5642;50.830;12.082;2022-09-16T10:33:00;98572.75;;;25.11;39.06
11172;BME280;5642;50.830;12.082;2022-09-16T10:35:35;98508.88;;;24.64;39.01
11172;BME280;5642;50.830;12.082;2022-09-16T10:38:04;98522.28;;;24.46;38.70
11172;BME280;5642;50.830;12.082;2022-09-16T10:40:35;98577.03;;;24.52;39.00
11172;BME280;5642;50.830;12.082;2022-09-16T10:43:06;98583.22;;;24.27;38.75
11172;BME280;5642;50.830;12.082;2022-09-16T10:45:45;98577.72;;;24.28;39.36
11172;BME280;5642;50.830;12.082;2022-09-16T10:48:15;98524.97;;;24.72;39.90
11172;BME280;5642;50.830;12.082;2022-09-16T10:51:05;98486.50;;;25.07;39.57
11172;BME280;5642;50.830;12.082;2022-09-16T10:53:44;98489.03;;;25.25;39.52
11172;BME280;5642;50.830;12.082;2022-09-16T10:56:22;98511.97;;;25.61;39.33
11172;BME280;5642;50.830;12.082;2022-09-16T10:58:59;98555.25;;;25.83;39.24
11172;BME280;5642;50.830;12.082;2022-09-16T11:04:48;98552.94;;;26.52;39.23
11172;BME280;5642;50.830;12.082;2022-09-16T11:18:23;98503.50;;;29.50;38.29
11172;BME280;5642;50.830;12.082;2022-09-16T11:21:33;98548.44;;;29.43;38.40
11172;BME280;5642;50.830;12.082;2022-09-16T11:24:26;98562.88;;;28.76;38.45
11172;BME280;5642;50.830;12.082;2022-09-16T11:33:27;98567.34;;;26.60;38.80
11172;BME280;5642;50.830;12.082;2022-09-16T11:44:31;98520.16;;;25.10;39.55
11172;BME280;5642;50.830;12.082;2022-09-16T11:49:49;98538.97;;;24.66;39.26
11172;BME280;5642;50.830;12.082;2022-09-16T11:52:42;98536.94;;;24.34;39.32
11172;BME280;5642;50.830;12.082;2022-09-16T11:58:29;98469.91;;;23.57;39.22
11172;BME280;5642;50.830;12.082;2022-09-16T12:01:01;98466.41;;;23.29;39.34
11172;BME280;5642;50.830;12.082;2022-09-16T12:09:25;98515.19;;;23.58;39.25
11172;BME280;5642;50.830;12.082;2022-09-16T12:12:08;98459.06;;;23.31;39.31
11172;BME280;5642;50.830;12.082;2022-09-16T12:14:43;98460.19;;;23.56;39.35
11172;BME280;5642;50.830;12.082;2022-09-16T12:19:54;98446.53;;;24.02;38.86
11172;BME280;5642;50.830;12.082;2022-09-16T12:22:39;98514.81;;;24.50;38.63
11172;BME280;5642;50.830;12.082;2022-09-16T12:25:43;98514.84;;;24.58;38.71
11172;BME280;5642;50.830;12.082;2022-09-16T12:28:30;98459.97;;;24.28;38.69
11172;BME280;5642;50.830;12.082;2022-09-16T12:31:07;98450.47;;;24.16;38.46
11172;BME280;5642;50.830;12.082;2022-09-16T12:33:51;98516.44;;;24.43;38.20
11172;BME280;5642;50.830;12.082;2022-09-16T12:36:29;98437.56;;;23.86;38.37
11172;BME280;5642;50.830;12.082;2022-09-16T12:39:02;98449.75;;;23.88;38.25
11172;BME280;5642;50.830;12.082;2022-09-16T12:41:48;98520.97;;;24.25;38.28
11172;BME280;5642;50.830;12.082;2022-09-16T12:44:39;98470.56;;;23.76;38.34
11172;BME280;5642;50.830;12.082;2022-09-16T12:59:51;98539.78;;;23.34;38.11
11172;BME280;5642;50.830;12.082;2022-09-16T13:02:11;98476.38;;;22.82;38.48
11172;BME280;5642;50.830;12.082;2022-09-16T13:04:47;98531.56;;;22.91;38.24
11172;BME280;5642;50.830;12.082;2022-09-16T13:10:35;98535.69;;;22.76;38.19
11172;BME280;5642;50.830;12.082;2022-09-16T13:13:06;98451.34;;;22.09;38.10
11172;BME280;5642;50.830;12.082;2022-09-16T13:15:39;98534.03;;;22.55;38.54
11172;BME280;5642;50.830;12.082;2022-09-16T13:18:23;98506.31;;;22.29;38.31
11172;BME280;5642;50.830;12.082;2022-09-16T13:21:22;98474.50;;;21.99;38.14
11172;BME280;5642;50.830;12.082;2022-09-16T13:26:46;98464.06;;;21.96;38.30
11172;BME280;5642;50.830;12.082;2022-09-16T13:29:42;98530.47;;;22.27;38.42
11172;BME280;5642;50.830;12.082;2022-09-16T13:37:50;98471.97;;;21.68;38.46
11172;BME280;5642;50.830;12.082;2022-09-16T13:40:30;98481.63;;;21.69;38.05
11172;BME280;5642;50.830;12.082;2022-09-16T13:46:34;98498.19;;;21.54;38.08
11172;BME280;5642;50.830;12.082;2022-09-16T13:51:45;98458.97;;;21.06;38.20
11172;BME280;5642;50.830;12.082;2022-09-16T13:54:38;98510.63;;;21.34;38.12
11172;BME280;5642;50.830;12.082;2022-09-16T14:02:41;98445.72;;;20.76;38.29
11172;BME280;5642;50.830;12.082;2022-09-16T14:08:20;98497.88;;;20.88;38.14
11172;BME280;5642;50.830;12.082;2022-09-16T14:11:18;98486.47;;;20.76;38.35
11172;BME280;5642;50.830;12.082;2022-09-16T14:13:55;98419.25;;;20.34;38.48
11172;BME280;5642;50.830;12.082;2022-09-16T14:16:27;98465.97;;;20.57;38.46
11172;BME280;5642;50.830;12.082;2022-09-16T14:24:41;98452.91;;;20.45;38.31
11172;BME280;5642;50.830;12.082;2022-09-16T14:27:30;98392.63;;;20.04;38.34
11172;BME280;5642;50.830;12.082;2022-09-16T14:30:26;98451.53;;;20.29;38.26
11172;BME280;5642;50.830;12.082;2022-09-16T14:32:56;98447.91;;;20.30;38.33
11172;BME280;5642;50.830;12.082;2022-09-16T14:35:27;98386.22;;;19.85;38.25
11172;BME280;5642;50.830;12.082;2022-09-16T14:37:59;98463.28;;;20.27;38.38
11172;BME280;5642;50.830;12.082;2022-09-16T14:40:33;98388.97;;;19.74;38.35
11172;BME280;5642;50.830;12.082;2022-09-16T14:43:06;98467.84;;;20.15;38.06
11172;BME280;5642;50.830;12.082;2022-09-16T14:45:35;98466.22;;;20.03;38.07
11172;BME280;5642;50.830;12.082;2022-09-16T14:48:11;98439.63;;;19.82;38.42
11172;BME280;5642;50.830;12.082;2022-09-16T14:50:56;98432.19;;;19.76;38.57
11172;BME280;5642;50.830;12.082;2022-09-16T14:53:54;98406.66;;;19.64;38.34
11172;BME280;5642;50.830;12.082;2022-09-16T14:57:01;98390.41;;;19.58;38.81
11172;BME280;5642;50.830;12.082;2022-09-16T14:59:35;98418.78;;;19.78;38.78
11172;BME280;5642;50.830;12.082;2022-09-16T15:02:24;98475.69;;;20.17;38.70
11172;BME280;5642;50.830;12.082;2022-09-16T15:05:22;98431.28;;;19.87;38.63
11172;BME280;5642;50.830;12.082;2022-09-16T15:10:50;98414.81;;;19.72;38.57
11172;BME280;5642;50.830;12.082;2022-09-16T15:16:19;98479.13;;;20.08;38.73
11172;BME280;5642;50.830;12.082;2022-09-16T15:19:05;98410.16;;;19.65;38.89
11172;BME280;5642;50.830;12.082;2022-09-16T15:21:36;98476.03;;;20.03;38.57
11172;BME280;5642;50.830;12.082;2022-09-16T15:24:32;98483.66;;;19.96;38.94
11172;BME280;5642;50.830;12.082;2022-09-16T15:27:01;98415.06;;;19.48;38.85
11172;BME280;5642;50.830;12.082;2022-09-16T15:30:01;98451.19;;;19.72;38.45
11172;BME280;5642;50.830;12.082;2022-09-16T15:32:45;98390.88;;;19.31;38.46
11172;BME280;5642;50.830;12.082;2022-09-16T15:35:27;98454.22;;;19.67;38.68
11172;BME280;5642;50.830;12.082;2022-09-16T15:38:09;98409.78;;;19.37;38.52
11172;BME280;5642;50.830;12.082;2022-09-16T15:41:13;98477.94;;;19.80;38.65
11172;BME280;5642;50.830;12.082;2022-09-16T15:43:45;98440.78;;;19.48;38.65
11172;BME280;5642;50.830;12.082;2022-09-16T15:46:20;98483.38;;;19.78;38.61
11172;BME280;5642;50.830;12.082;2022-09-16T15:48:59;98391.22;;;19.26;38.72
11172;BME280;5642;50.830;12.082;2022-09-16T15:51:32;98476.50;;;19.76;38.82
11172;BME280;5642;50.830;12.082;2022-09-16T16:02:43;98416.34;;;19.54;38.99
11172;BME280;5642;50.830;12.082;2022-09-16T16:05:32;98444.16;;;19.71;39.16
11172;BME280;5642;50.830;12.082;2022-09-16T16:08:01;98447.34;;;19.65;39.03
11172;BME280;5642;50.830;12.082;2022-09-16T16:10:32;98446.50;;;19.64;39.04
11172;BME280;5642;50.830;12.082;2022-09-16T16:13:10;98393.19;;;19.24;39.23
11172;BME280;5642;50.830;12.082;2022-09-16T16:15:44;98397.44;;;19.15;39.29
11172;BME280;5642;50.830;12.082;2022-09-16T16:18:14;98415.91;;;19.17;39.11
11172;BME280;5642;50.830;12.082;2022-09-16T16:20:45;98395.31;;;18.98;39.39
11172;BME280;5642;50.830;12.082;2022-09-16T16:23:11;98394.28;;;18.90;39.23
11172;BME280;5642;50.830;12.082;2022-09-16T16:25:41;98470.75;;;19.28;39.29
11172;BME280;5642;50.830;12.082;2022-09-16T16:28:13;98408.03;;;18.84;39.38
11172;BME280;5642;50.830;12.082;2022-09-16T16:30:43;98424.19;;;18.81;39.38
11172;BME280;5642;50.830;12.082;2022-09-16T16:33:11;98373.47;;;18.52;39.41
11172;BME280;5642;50.830;12.082;2022-09-16T16:35:38;98411.69;;;18.60;39.42
11172;BME280;5642;50.830;12.082;2022-09-16T16:38:05;98382.53;;;18.38;39.54
11172;BME280;5642;50.830;12.082;2022-09-16T16:40:36;98401.91;;;18.38;39.57
11172;BME280;5642;50.830;12.082;2022-09-16T16:43:06;98415.06;;;18.40;39.44
11172;BME280;5642;50.830;12.082;2022-09-16T16:45:36;98446.75;;;18.53;39.59
11172;BME280;5642;50.830;12.082;2022-09-16T16:48:14;98430.59;;;18.33;39.63